ヤクーツク空港の過去48時間の天気

ヤクーツク空港 (Jakutsk)

現在時刻: 9/23 09:13 +09 (9/23 00:13 UTC) 以下の時間は現地時間です。

過去48時間のMETAR気象情報
時間 風向 風速(m/s) 視程 気温(℃) 湿度(%) 気圧(hPa) 天気現象
23 08:30 東北東 2 10km以上 2 93 1021
23 08:00 2 10km以上 2 87 1021
23 07:30 3 10km以上 1 93 1021 周辺で霧
23 07:00 2 10km以上 1 93 1021 周辺で霧
23 06:30 3 10km以上 1 93 1020 周辺で霧
23 06:00 東南東 3 10km以上 1 93 1020 周辺で霧
23 05:30 2 10km以上 1 93 1020 周辺で霧
23 05:00 2 10km以上 1 93 1020
23 04:30 3 10km以上 1 93 1019
23 04:00 2 10km以上 1 93 1019
23 03:30 2 10km以上 1 93 1019
23 03:00 2 10km以上 1 93 1019
23 02:30 1 10km以上 0 93 1019
23 02:00 東南東 2 10km以上 1 93 1019
23 01:30 東南東 2 10km以上 1 93 1019
23 01:00 2 10km以上 2 87 1019
23 00:30 2 10km以上 2 87 1019
23 00:00 東南東 3 10km以上 3 81 1019
22 23:30 東南東 3 10km以上 3 87 1018
22 23:00 東南東 3 10km以上 4 81 1018
22 22:30 東南東 2 10km以上 5 75 1018
22 22:00 東南東 3 10km以上 5 81 1018
22 21:30 東南東 3 10km以上 6 76 1018
22 21:00 東南東 4 10km以上 6 76 1018
22 20:30 東南東 4 10km以上 7 70 1018
22 20:00 東南東 4 10km以上 8 66 1017
22 19:30 東南東 4 10km以上 9 62 1017
22 19:00 東南東 4 10km以上 10 58 1017
22 18:30 東南東 3 10km以上 10 54 1017
22 18:00 東南東 3 10km以上 11 54 1016
22 17:30 東南東 5 10km以上 12 50 1016
22 17:00 東南東 4 10km以上 13 47 1016
22 16:30 5 10km以上 13 44 1016
22 16:00 東南東 5 10km以上 14 44 1016
22 15:30 4 10km以上 14 41 1016
22 15:00 東南東 4 10km以上 14 41 1016
22 14:30 4 10km以上 14 44 1017
22 14:00 5 10km以上 14 44 1017
22 13:30 4 10km以上 14 44 1017
22 13:00 東南東 4 10km以上 13 47 1017
22 12:30 南東 4 10km以上 12 50 1017
22 12:00 南東 4 10km以上 11 54 1018
22 11:30 南東 4 10km以上 11 54 1018
22 11:00 南東 3 10km以上 10 58 1018
22 10:30 南東 2 10km以上 9 62 1018
22 10:00 南東 2 10km以上 8 61 1018
22 09:30 東南東 2 10km以上 6 70 1018
22 09:00 東南東 2 10km以上 5 75 1018
22 08:30 東南東 2 10km以上 4 81 1018
22 08:00 北北西 1 10km以上 1 93 1018
22 07:30 静穏 0 10km以上 -1 93 1018
22 07:00 1 10km以上 -2 93 1018 周辺で霧
22 06:30 1 10km以上 -3 93 1018 周辺で霧
22 06:00 1 10km以上 -3 93 1018
22 05:30 北北西 1 10km以上 -3 93 1018
22 05:00 北北西 1 10km以上 -3 100 1018
22 04:30 北北西 1 10km以上 -3 100 1018
22 04:00 北西 2 10km以上 -3 93 1018
22 03:30 北西 1 10km以上 -3 100 1018
22 03:00 北北西 2 10km以上 -2 100 1018
22 02:30 2 10km以上 -2 100 1018
22 02:00 2 10km以上 -1 93 1018
22 01:30 北北西 2 10km以上 -1 93 1018
22 01:00 北北西 2 10km以上 -1 93 1018
22 00:30 北西 2 10km以上 -2 100 1017
22 00:00 北西 2 10km以上 -1 93 1017
21 23:30 北西 2 10km以上 -1 93 1017
21 23:00 北西 2 10km以上 -1 93 1017
21 22:30 北西 1 10km以上 0 86 1017
21 22:00 北西 1 10km以上 0 93 1017
21 21:30 北西 1 10km以上 0 93 1017
21 21:00 南東 2 10km以上 3 93 1017
21 20:30 東南東 1 10km以上 0 100 1017
21 20:00 東南東 1 10km以上 1 93 1017
21 19:30 1 10km以上 1 93 1017
21 19:00 東北東 1 10km以上 2 87 1017
21 18:30 東北東 1 10km以上 6 70 1017
21 18:00 東北東 1 10km以上 8 61 1017
21 17:30 東南東 1 10km以上 10 54 1017
21 17:00 東北東 1 10km以上 10 54 1017
21 16:30 南東 1 10km以上 10 54 1017
21 16:00 東南東 2 10km以上 10 54 1017
21 15:30 南東 3 10km以上 9 53 1017
21 15:00 東南東 3 10km以上 9 53 1017
21 14:30 東南東 2 10km以上 9 57 1017
21 14:00 東南東 3 10km以上 8 61 1017
21 13:30 東南東 3 10km以上 8 61 1017
21 13:00 東南東 3 10km以上 7 66 1017
21 12:30 南東 4 10km以上 7 66 1017
21 12:00 東南東 3 10km以上 7 66 1017
21 11:30 東南東 3 10km以上 6 70 1017
21 11:00 南南西 2 10km以上 7 61 1017
21 10:30 2 10km以上 6 65 1018
21 10:00 南西 2 10km以上 5 65 1018
21 09:30 南西 2 10km以上 4 70 1018
UEEE 222330Z 07002MPS 030V100 9999 SCT005 02/01 Q1021 R23L/09//60 RMK QBB150 QFE757
UEEE 222300Z 09002MPS 9999 SCT005 02/00 Q1021 R23L/09//60 NOSIG RMK QBB150 QFE757
UEEE 222230Z 09003MPS 9999 VCFG SCT006 01/00 Q1021 R23L/09//60 NOSIG RMK QBB180 QFE757
UEEE 222200Z 10002MPS 9999 VCFG FEW006 01/M00 Q1021 R23L/09//60 NOSIG RMK QFE757
UEEE 222130Z 10003MPS 9999 VCFG FEW006 01/M00 Q1020 R23L/09//60 NOSIG RMK QFE756
UEEE 222100Z 11003MPS 9999 VCFG NSC 01/M00 Q1020 R23L/09//60 NOSIG RMK QFE756
UEEE 222030Z 09002MPS 9999 VCFG NSC 01/M00 Q1020 R23L/09//60 NOSIG RMK QFE756
UEEE 222000Z 09002MPS CAVOK 01/M00 Q1020 R23L/09//60 NOSIG RMK QFE756
UEEE 221930Z 09003MPS CAVOK 01/M00 Q1019 R23L/09//60 NOSIG RMK QFE756
UEEE 221900Z 08002MPS CAVOK 01/M00 Q1019 R23L/09//60 NOSIG RMK QFE755
UEEE 221830Z 10002MPS CAVOK 01/M00 Q1019 R23L/09//60 NOSIG RMK QFE755
UEEE 221800Z 10002MPS CAVOK 01/00 Q1019 R23L/09//60 NOSIG RMK QFE755
UEEE 221730Z 08001MPS CAVOK 00/M01 Q1019 R23L/09//60 NOSIG RMK QFE755
UEEE 221700Z 11002MPS CAVOK 01/M00 Q1019 R23L/09//60 NOSIG RMK QFE755
UEEE 221630Z 11002MPS CAVOK 01/00 Q1019 R23L/09//60 NOSIG RMK QFE755
UEEE 221600Z 10002MPS CAVOK 02/00 Q1019 R23L/09//60 NOSIG RMK QFE755
UEEE 221530Z 10002MPS CAVOK 02/00 Q1019 R23L/09//60 NOSIG RMK QFE755
UEEE 221500Z 11003MPS CAVOK 03/00 Q1019 R23L/09//60 NOSIG RMK QFE755
UEEE 221430Z 11003MPS CAVOK 03/01 Q1018 R23L/09//60 NOSIG RMK QFE755
UEEE 221400Z 11003MPS CAVOK 04/01 Q1018 R23L/09//60 NOSIG RMK QFE755
UEEE 221330Z 12002MPS CAVOK 05/01 Q1018 R23L/09//60 NOSIG RMK QFE755
UEEE 221300Z 12003MPS CAVOK 05/02 Q1018 R23L/09//60 NOSIG RMK QFE755
UEEE 221230Z 12003MPS CAVOK 06/02 Q1018 R23L/09//60 NOSIG RMK QFE755
UEEE 221200Z 11004MPS CAVOK 06/02 Q1018 R23L/09//60 NOSIG RMK QFE754
UEEE 221130Z 11004MPS CAVOK 07/02 Q1018 R23L/09//64 NOSIG RMK QFE754
UEEE 221100Z 11004MPS CAVOK 08/02 Q1017 R23L/09//64 NOSIG RMK QFE754
UEEE 221030Z 11004MPS CAVOK 09/02 Q1017 R23L/09//64 NOSIG RMK QFE754
UEEE 221000Z 11004MPS CAVOK 10/02 Q1017 R23L/09//64 NOSIG RMK QFE754
UEEE 220930Z 11003MPS CAVOK 10/01 Q1017 R23L/09//64 NOSIG RMK QFE754
UEEE 220900Z 12003MPS CAVOK 11/02 Q1016 R23L/09//64 NOSIG RMK QFE754
UEEE 220830Z 11005MPS CAVOK 12/02 Q1016 R23L/09//64 NOSIG RMK QFE753
UEEE 220800Z 11004MPS CAVOK 13/02 Q1016 R23L/09//64 NOSIG RMK QFE753
UEEE 220730Z 10005MPS CAVOK 13/01 Q1016 R23L/09//64 NOSIG RMK QFE753
UEEE 220700Z 11005MPS CAVOK 14/02 Q1016 R23L/09//64 NOSIG RMK QFE753
UEEE 220630Z 10004MPS CAVOK 14/01 Q1016 R23L/09//64 NOSIG RMK QFE753
UEEE 220600Z 11004MPS CAVOK 14/01 Q1016 R23L/09//64 NOSIG RMK QFE754
UEEE 220530Z 10004MPS CAVOK 14/02 Q1017 R23L/09//64 NOSIG RMK QFE754
UEEE 220500Z 10005MPS CAVOK 14/02 Q1017 R23L/09//64 NOSIG RMK QFE754
UEEE 220430Z 10004MPS CAVOK 14/02 Q1017 R23L/09//64 NOSIG RMK QFE754
UEEE 220400Z 11004MPS CAVOK 13/02 Q1017 R23L/09//64 NOSIG RMK QFE754
UEEE 220330Z 13004MPS CAVOK 12/02 Q1017 R23L/09//64 NOSIG RMK QFE754
UEEE 220300Z 14004MPS CAVOK 11/02 Q1018 R23L/09//64 NOSIG RMK QFE754
UEEE 220230Z 14004MPS CAVOK 11/02 Q1018 R23L/09//64 NOSIG RMK QFE755
UEEE 220200Z 14003MPS CAVOK 10/02 Q1018 R23L/09//64 NOSIG RMK QFE755
UEEE 220130Z 14002MPS CAVOK 09/02 Q1018 R23L/09//64 NOSIG RMK QFE755
UEEE 220100Z 14002MPS CAVOK 08/01 Q1018 R23L/09//64 NOSIG RMK QFE755
UEEE 220030Z 12002MPS CAVOK 06/01 Q1018 R23L/09//64 NOSIG RMK QFE755
UEEE 220000Z 12002MPS CAVOK 05/01 Q1018 R23L/09//64 NOSIG RMK QFE755
UEEE 212330Z 12002MPS CAVOK 04/01 Q1018 R23L/09//64 NOSIG RMK QFE755
UEEE 212300Z 34001MPS CAVOK 01/M00 Q1018 R23L/09//64 NOSIG RMK QFE755
UEEE 212230Z 00000MPS CAVOK M01/M02 Q1018 R23L/09//64 NOSIG RMK QFE755
UEEE 212200Z 36001MPS 9999 VCFG NSC M02/M03 Q1018 R23L/09//64 NOSIG RMK QFE755
UEEE 212130Z 35001MPS 9999 VCFG NSC M03/M04 Q1018 R23L/09//64 NOSIG RMK QFE755
UEEE 212100Z 35001MPS CAVOK M03/M04 Q1018 R23L/09//64 NOSIG RMK QFE755
UEEE 212030Z 33001MPS CAVOK M03/M04 Q1018 R23L/09//64 NOSIG RMK QFE755
UEEE 212000Z 34001MPS CAVOK M03/M03 Q1018 R23L/09//64 NOSIG RMK QFE755
UEEE 211930Z 34001MPS CAVOK M03/M03 Q1018 R23L/09//64 NOSIG RMK QFE755
UEEE 211900Z 32002MPS CAVOK M03/M04 Q1018 R23L/09//64 NOSIG RMK QFE755
UEEE 211830Z 32001MPS CAVOK M03/M03 Q1018 R23L/09//64 NOSIG RMK QFE755
UEEE 211800Z 34002MPS CAVOK M02/M02 Q1018 R23L/09//64 NOSIG RMK QFE755
UEEE 211730Z 01002MPS CAVOK M02/M02 Q1018 R23L/09//64 NOSIG RMK QFE755
UEEE 211700Z 01002MPS CAVOK M01/M02 Q1018 R23L/09//64 NOSIG RMK QFE755
UEEE 211630Z 34002MPS CAVOK M01/M02 Q1018 R23L/09//64 NOSIG RMK QFE755
UEEE 211600Z 33002MPS CAVOK M01/M02 Q1018 R23L/09//64 NOSIG RMK QFE754
UEEE 211530Z 32002MPS CAVOK M02/M02 Q1017 R23L/09//64 NOSIG RMK QFE754
UEEE 211500Z 32002MPS CAVOK M01/M02 Q1017 R23L/09//64 NOSIG RMK QFE754
UEEE 211430Z 32002MPS CAVOK M01/M02 Q1017 R23L/09//64 NOSIG RMK QFE754
UEEE 211400Z 32002MPS CAVOK M01/M02 Q1017 R23L/09//64 NOSIG RMK QFE754
UEEE 211330Z 32001MPS CAVOK M00/M02 Q1017 R23L/09//64 NOSIG RMK QFE754
UEEE 211300Z 32001MPS CAVOK 00/M01 Q1017 R23L/09//64 NOSIG RMK QFE754
UEEE 211230Z 32001MPS CAVOK 00/M01 Q1017 R23L/09//64 NOSIG RMK QFE754
UEEE 211200Z 13002MPS CAVOK 03/02 Q1017 R23L/09//64 NOSIG RMK QFE754
UEEE 211130Z 12001MPS CAVOK 00/M00 Q1017 R23L/09//64 NOSIG RMK QFE754
UEEE 211100Z 11001MPS CAVOK 01/M00 Q1017 R23L/09//64 NOSIG RMK QFE754
UEEE 211030Z 10001MPS CAVOK 01/M00 Q1017 R23L/09//64 NOSIG RMK QFE754
UEEE 211000Z 06001MPS CAVOK 02/00 Q1017 R23L/09//64 NOSIG RMK QFE754
UEEE 210930Z 06001MPS CAVOK 06/01 Q1017 R23L/09//64 NOSIG RMK QFE754
UEEE 210900Z 06001MPS CAVOK 08/01 Q1017 R23L/09//64 NOSIG RMK QFE754
UEEE 210830Z 12001MPS CAVOK 10/01 Q1017 R23L/09//64 NOSIG RMK QFE754
UEEE 210800Z 07001MPS CAVOK 10/01 Q1017 R23L/09//64 NOSIG RMK QFE754
UEEE 210730Z 13001MPS CAVOK 10/01 Q1017 R23L/09//64 NOSIG RMK QFE754
UEEE 210700Z 11002MPS CAVOK 10/01 Q1017 R23L/09//64 NOSIG RMK QFE754
UEEE 210630Z 13003MPS CAVOK 09/00 Q1017 R23L/09//64 NOSIG RMK QFE754
UEEE 210600Z 12003MPS CAVOK 09/00 Q1017 R23L/09//64 NOSIG RMK QFE754
UEEE 210530Z 11002MPS 080V150 CAVOK 09/01 Q1017 R23L/09//64 NOSIG RMK QFE754
UEEE 210500Z 12003MPS CAVOK 08/01 Q1017 R23L/09//64 NOSIG RMK QFE754
UEEE 210430Z 12003MPS CAVOK 08/01 Q1017 R23L/09//64 NOSIG RMK QFE754
UEEE 210400Z 11003MPS CAVOK 07/01 Q1017 R23L/09//64 NOSIG RMK QFE754
UEEE 210330Z 13004MPS CAVOK 07/01 Q1017 R23L/09//64 NOSIG RMK QFE754
UEEE 210300Z 11003MPS CAVOK 07/01 Q1017 R23L/09//64 NOSIG RMK QFE754
UEEE 210230Z 11003MPS CAVOK 06/01 Q1017 R23L/09//64 NOSIG RMK QFE754
UEEE 210200Z 20002MPS 090V250 CAVOK 07/M00 Q1017 R23L/09//64 NOSIG RMK QFE754
UEEE 210130Z 19002MPS 140V230 CAVOK 06/M00 Q1018 R23L/09//64 NOSIG RMK QFE754
UEEE 210100Z 23002MPS 9999 FEW020 05/M01 Q1018 R23L/09//60 NOSIG RMK QFE754
UEEE 210030Z 22002MPS 9999 FEW020 04/M01 Q1018 R23L/09//60 NOSIG RMK QFE754